createdAt,value
2018-05-25T00:00:04.175Z,81.00
2018-05-25T00:03:07.491Z,81.00
2018-05-25T00:06:11.570Z,80.40
2018-05-25T00:09:14.897Z,80.30
2018-05-25T00:12:19.080Z,79.80
2018-05-25T00:15:22.475Z,79.80
2018-05-25T00:18:25.799Z,80.10
2018-05-25T00:21:29.167Z,80.50
2018-05-25T00:24:32.564Z,80.70
2018-05-25T00:27:35.898Z,81.00
2018-05-25T00:30:39.983Z,81.20
2018-05-25T00:33:44.081Z,80.90
2018-05-25T00:36:47.423Z,80.90
2018-05-25T00:39:50.726Z,80.60
2018-05-25T00:42:54.072Z,80.90
2018-05-25T00:45:57.485Z,81.40
2018-05-25T00:49:01.575Z,82.10
2018-05-25T00:52:04.945Z,82.20
2018-05-25T00:55:25.981Z,82.30
2018-05-25T00:58:29.310Z,82.70
2018-05-25T01:01:32.694Z,82.70
2018-05-25T01:04:36.033Z,82.80
2018-05-25T01:07:39.368Z,82.90
2018-05-25T01:10:42.677Z,83.20
2018-05-25T01:13:45.989Z,83.20
2018-05-25T01:16:49.296Z,82.10
2018-05-25T01:19:52.666Z,82.10
2018-05-25T01:22:56.053Z,82.70
2018-05-25T01:25:59.327Z,83.20
2018-05-25T01:29:02.645Z,84.20
2018-05-25T01:32:05.989Z,84.90
2018-05-25T01:35:10.047Z,83.40
2018-05-25T01:38:13.414Z,83.40
2018-05-25T01:41:16.717Z,83.20
2018-05-25T01:44:20.140Z,83.20
2018-05-25T01:47:23.552Z,83.20
2018-05-25T01:50:26.857Z,83.30
2018-05-25T01:53:30.973Z,82.50
2018-05-25T01:56:34.352Z,82.50
2018-05-25T01:59:37.740Z,82.30
2018-05-25T02:02:41.150Z,82.40
2018-05-25T02:05:44.536Z,82.40
2018-05-25T02:08:47.950Z,82.30
2018-05-25T02:11:51.261Z,82.40
2018-05-25T02:14:54.625Z,82.80
2018-05-25T02:17:58.025Z,83.40
2018-05-25T02:21:01.430Z,83.70
2018-05-25T02:24:04.719Z,83.70
2018-05-25T02:27:08.124Z,83.20
2018-05-25T02:30:11.525Z,83.20
2018-05-25T02:33:14.909Z,82.10
2018-05-25T02:36:18.185Z,82.40
2018-05-25T02:39:21.772Z,82.40
2018-05-25T02:42:25.096Z,82.70
2018-05-25T02:45:28.418Z,83.20
2018-05-25T02:48:32.521Z,83.80
2018-05-25T02:51:35.920Z,83.80
2018-05-25T02:54:39.319Z,83.10
2018-05-25T02:57:42.723Z,82.50
2018-05-25T03:00:46.029Z,82.60
2018-05-25T03:03:49.463Z,83.10
2018-05-25T03:06:52.776Z,83.60
2018-05-25T03:09:56.208Z,84.10
2018-05-25T03:12:59.596Z,84.50
2018-05-25T03:16:03.000Z,83.80
2018-05-25T03:19:06.389Z,83.30
2018-05-25T03:22:09.788Z,83.30
2018-05-25T03:25:13.180Z,83.40
2018-05-25T03:28:16.495Z,83.40
2018-05-25T03:31:19.800Z,83.10
2018-05-25T03:34:23.184Z,82.90
2018-05-25T03:37:26.574Z,82.60
2018-05-25T03:40:30.870Z,81.30
2018-05-25T03:43:34.292Z,81.10
2018-05-25T03:46:37.613Z,80.20
2018-05-25T03:49:40.991Z,79.50
2018-05-25T03:52:44.310Z,79.00
2018-05-25T03:55:48.403Z,79.40
2018-05-25T03:59:09.580Z,78.80
2018-05-25T04:02:12.927Z,78.60
2018-05-25T04:05:17.179Z,79.60
2018-05-25T04:08:20.527Z,80.30
2018-05-25T04:11:23.917Z,80.50
2018-05-25T04:14:27.405Z,81.30
2018-05-25T04:17:30.829Z,82.00
2018-05-25T04:20:34.205Z,81.90
2018-05-25T04:23:37.630Z,81.60
2018-05-25T04:26:42.585Z,81.60
2018-05-25T04:29:45.946Z,81.50
2018-05-25T04:32:49.256Z,81.70
2018-05-25T04:35:52.624Z,81.90
2018-05-25T04:38:55.953Z,81.90
2018-05-25T04:42:00.074Z,81.30
2018-05-25T04:45:04.156Z,81.80
2018-05-25T04:48:07.550Z,81.80
2018-05-25T04:51:10.883Z,81.90
2018-05-25T04:54:14.251Z,81.20
2018-05-25T04:57:17.528Z,81.10
2018-05-25T05:00:20.981Z,81.30
2018-05-25T05:03:25.102Z,81.30
2018-05-25T05:06:29.286Z,81.10
2018-05-25T05:09:32.613Z,81.10
2018-05-25T05:12:35.913Z,80.60
2018-05-25T05:15:39.235Z,80.70
2018-05-25T05:18:42.582Z,80.50
2018-05-25T05:21:45.978Z,81.10
2018-05-25T05:24:49.375Z,80.50
2018-05-25T05:27:52.804Z,80.50
2018-05-25T05:30:56.892Z,80.10
2018-05-25T05:34:00.183Z,80.20
2018-05-25T05:37:03.589Z,78.80
2018-05-25T05:40:06.919Z,78.80
2018-05-25T05:43:10.262Z,79.00
2018-05-25T05:46:13.592Z,78.50
2018-05-25T05:49:16.930Z,78.70
2018-05-25T05:52:21.106Z,77.70
2018-05-25T05:55:24.511Z,77.70
2018-05-25T05:58:27.843Z,76.20
2018-05-25T06:01:31.943Z,74.90
2018-05-25T06:04:35.258Z,75.30
2018-05-25T06:07:39.377Z,75.20
2018-05-25T06:10:43.420Z,74.80
2018-05-25T06:13:46.960Z,74.80
2018-05-25T06:16:50.347Z,73.70
2018-05-25T06:19:53.708Z,73.50
2018-05-25T06:22:57.014Z,73.10
2018-05-25T06:26:00.338Z,72.80
2018-05-25T06:29:03.665Z,72.20
2018-05-25T06:32:07.857Z,72.50
2018-05-25T06:35:11.142Z,71.80
2018-05-25T06:38:14.485Z,71.90
2018-05-25T06:41:17.877Z,70.80
2018-05-25T06:44:21.257Z,70.60
2018-05-25T06:47:24.671Z,69.40
2018-05-25T06:50:28.056Z,68.90
2018-05-25T06:53:31.469Z,69.40
2018-05-25T06:56:34.863Z,68.80
2018-05-25T06:59:38.165Z,67.80
2018-05-25T07:02:41.561Z,66.70
2018-05-25T07:05:44.883Z,65.60
2018-05-25T07:08:49.038Z,64.80
2018-05-25T07:11:52.370Z,64.80
2018-05-25T07:14:55.718Z,64.60
2018-05-25T07:17:59.813Z,64.70
2018-05-25T07:21:03.941Z,62.80
2018-05-25T07:24:08.021Z,62.90
2018-05-25T07:27:11.361Z,62.90
2018-05-25T07:30:15.538Z,60.70
2018-05-25T07:33:18.902Z,60.70
2018-05-25T07:36:22.352Z,60.40
2018-05-25T07:39:25.738Z,60.30
2018-05-25T07:42:29.133Z,60.00
2018-05-25T07:45:32.498Z,60.90
2018-05-25T07:48:35.793Z,59.90
2018-05-25T07:51:39.170Z,59.70
2018-05-25T07:54:43.338Z,59.60
2018-05-25T07:57:46.737Z,59.60
2018-05-25T08:00:50.070Z,59.00
2018-05-25T08:03:54.210Z,58.40
2018-05-25T08:06:57.538Z,58.40
2018-05-25T08:10:00.881Z,59.20
2018-05-25T08:13:04.971Z,58.60
2018-05-25T08:16:08.330Z,58.60
2018-05-25T08:19:11.637Z,58.20
2018-05-25T08:22:15.067Z,58.10
2018-05-25T08:25:18.460Z,58.00
2018-05-25T08:28:21.854Z,57.50
2018-05-25T08:31:25.192Z,57.40
2018-05-25T08:34:28.658Z,57.40
2018-05-25T08:37:31.969Z,58.00
2018-05-25T08:40:35.314Z,57.80
2018-05-25T08:43:38.664Z,57.20
2018-05-25T08:46:42.000Z,57.20
2018-05-25T08:49:46.646Z,55.90
2018-05-25T08:52:49.994Z,54.70
2018-05-25T08:55:54.071Z,53.30
2018-05-25T08:58:57.386Z,53.30
2018-05-25T09:02:01.537Z,52.10
2018-05-25T09:05:04.868Z,52.20
2018-05-25T09:08:08.174Z,51.10
2018-05-25T09:11:12.315Z,50.00
2018-05-25T09:14:15.692Z,49.90
2018-05-25T09:17:19.183Z,48.70
2018-05-25T09:20:22.481Z,48.80
2018-05-25T09:23:25.840Z,48.30
2018-05-25T09:26:29.155Z,48.20
2018-05-25T09:29:32.570Z,47.20
2018-05-25T09:32:35.969Z,48.40
2018-05-25T09:35:39.365Z,47.80
2018-05-25T09:38:42.776Z,47.30
2018-05-25T09:41:46.167Z,48.60
2018-05-25T09:44:49.567Z,47.30
2018-05-25T09:47:52.951Z,46.00
2018-05-25T09:50:56.372Z,47.80
2018-05-25T09:53:59.770Z,47.60
2018-05-25T09:57:03.106Z,46.60
2018-05-25T10:00:06.454Z,48.50
2018-05-25T10:03:09.926Z,49.10
2018-05-25T10:06:13.277Z,48.20
2018-05-25T10:09:17.386Z,49.80
2018-05-25T10:12:20.759Z,49.70
2018-05-25T10:15:24.080Z,50.80
2018-05-25T10:18:27.446Z,51.40
2018-05-25T10:21:30.756Z,50.50
2018-05-25T10:24:34.119Z,51.40
2018-05-25T10:27:37.547Z,52.00
2018-05-25T10:30:41.752Z,51.30
2018-05-25T10:33:45.074Z,51.20
2018-05-25T10:36:48.464Z,51.70
2018-05-25T10:39:51.763Z,51.00
2018-05-25T10:42:55.953Z,50.50
2018-05-25T10:45:59.270Z,50.50
2018-05-25T10:49:02.653Z,52.10
2018-05-25T10:52:05.981Z,50.00
2018-05-25T10:55:10.101Z,50.20
2018-05-25T10:58:14.150Z,49.80
2018-05-25T11:01:17.569Z,49.80
2018-05-25T11:04:20.898Z,49.70
2018-05-25T11:07:24.245Z,49.70
2018-05-25T11:10:27.533Z,50.00
2018-05-25T11:13:30.886Z,50.20
2018-05-25T11:16:34.969Z,48.50
2018-05-25T11:19:38.314Z,48.60
2018-05-25T11:22:42.401Z,49.20
2018-05-25T11:25:45.787Z,49.20
2018-05-25T11:28:49.110Z,48.80
2018-05-25T11:31:53.216Z,48.00
2018-05-25T11:34:57.286Z,49.30
2018-05-25T11:38:00.617Z,48.80
2018-05-25T11:41:05.445Z,48.30
2018-05-25T11:44:08.769Z,48.30
2018-05-25T11:47:12.146Z,49.20
2018-05-25T11:50:15.521Z,50.20
2018-05-25T11:53:18.816Z,49.40
2018-05-25T11:56:22.170Z,49.90
2018-05-25T11:59:25.517Z,50.20
2018-05-25T12:02:28.905Z,50.60
2018-05-25T12:05:32.296Z,50.40
2018-05-25T12:08:35.688Z,50.40
2018-05-25T12:11:39.000Z,51.00
2018-05-25T12:14:42.348Z,49.60
2018-05-25T12:17:45.688Z,49.00
2018-05-25T12:20:49.040Z,48.10
2018-05-25T12:23:52.377Z,48.10
2018-05-25T12:26:55.767Z,47.30
2018-05-25T12:29:59.172Z,45.50
2018-05-25T12:33:02.523Z,45.70
2018-05-25T12:36:05.830Z,45.10
2018-05-25T12:39:09.273Z,45.00
2018-05-25T12:42:12.675Z,46.20
2018-05-25T12:45:16.068Z,46.10
2018-05-25T12:48:19.472Z,45.40
2018-05-25T12:51:22.810Z,45.40
2018-05-25T12:54:26.158Z,45.30
2018-05-25T12:57:29.490Z,45.10
2018-05-25T13:00:33.569Z,44.90
2018-05-25T13:03:36.902Z,44.90
2018-05-25T13:06:41.000Z,44.30
2018-05-25T13:09:44.365Z,44.30
2018-05-25T13:12:47.761Z,44.20
2018-05-25T13:15:51.119Z,44.20
2018-05-25T13:18:54.484Z,43.70
2018-05-25T13:21:57.853Z,43.10
2018-05-25T13:25:01.252Z,42.20
2018-05-25T13:28:04.600Z,42.60
2018-05-25T13:31:07.953Z,42.80
2018-05-25T13:34:11.300Z,42.50
2018-05-25T13:37:14.612Z,43.30
2018-05-25T13:40:17.987Z,43.10
2018-05-25T13:43:21.337Z,42.70
2018-05-25T13:46:24.737Z,43.00
2018-05-25T13:49:28.134Z,43.20
2018-05-25T13:52:31.522Z,43.00
2018-05-25T13:55:34.813Z,43.20
2018-05-25T13:58:38.226Z,43.30
2018-05-25T14:01:41.588Z,43.50
2018-05-25T14:04:45.009Z,42.80
2018-05-25T14:07:48.436Z,43.00
2018-05-25T14:10:51.812Z,43.40
2018-05-25T14:13:55.131Z,42.80
2018-05-25T14:16:58.447Z,42.90
2018-05-25T14:20:01.910Z,43.80
2018-05-25T14:23:05.254Z,42.20
2018-05-25T14:26:08.565Z,42.40
2018-05-25T14:29:11.992Z,41.80
2018-05-25T14:32:15.328Z,41.40
2018-05-25T14:35:19.506Z,39.50
2018-05-25T14:38:25.381Z,39.40
2018-05-25T14:41:28.748Z,40.00
2018-05-25T14:44:32.154Z,39.00
2018-05-25T14:47:35.521Z,38.80
2018-05-25T14:50:38.838Z,40.20
2018-05-25T14:53:42.256Z,39.70
2018-05-25T14:56:45.684Z,39.10
2018-05-25T14:59:49.833Z,40.20
2018-05-25T15:02:53.136Z,40.20
2018-05-25T15:05:56.439Z,40.60
2018-05-25T15:08:59.853Z,40.20
2018-05-25T15:12:03.225Z,40.90
2018-05-25T15:15:06.540Z,40.70
2018-05-25T15:18:09.884Z,40.20
2018-05-25T15:21:14.004Z,39.70
2018-05-25T15:24:17.357Z,39.70
2018-05-25T15:27:20.751Z,40.00
2018-05-25T15:30:24.101Z,39.70
2018-05-25T15:33:27.432Z,39.20
2018-05-25T15:36:30.784Z,40.10
2018-05-25T15:39:34.115Z,40.20
2018-05-25T15:42:37.533Z,39.50
2018-05-25T15:45:40.930Z,37.30
2018-05-25T15:48:44.282Z,37.30
2018-05-25T15:51:47.604Z,36.60
2018-05-25T15:54:51.028Z,35.50
2018-05-25T15:57:54.419Z,34.10
2018-05-25T16:00:57.768Z,35.70
2018-05-25T16:04:01.132Z,37.00
2018-05-25T16:07:04.479Z,37.60
2018-05-25T16:10:07.825Z,36.30
2018-05-25T16:13:11.219Z,37.20
2018-05-25T16:16:14.613Z,38.30
2018-05-25T16:19:18.106Z,36.70
2018-05-25T16:22:21.451Z,37.70
2018-05-25T16:25:24.792Z,39.10
2018-05-25T16:28:28.201Z,39.70
2018-05-25T16:31:31.548Z,38.60
2018-05-25T16:34:34.864Z,37.90
2018-05-25T16:37:38.317Z,37.50
2018-05-25T16:40:42.498Z,35.40
2018-05-25T16:43:45.897Z,35.40
2018-05-25T16:46:49.209Z,36.60
2018-05-25T16:49:52.580Z,36.70
2018-05-25T16:52:55.915Z,36.40
2018-05-25T16:55:59.355Z,36.20
2018-05-25T16:59:02.651Z,36.10
2018-05-25T17:02:05.988Z,36.30
2018-05-25T17:05:09.396Z,37.00
2018-05-25T17:08:12.715Z,38.00
2018-05-25T17:11:16.059Z,39.00
2018-05-25T17:14:19.491Z,39.10
2018-05-25T17:17:22.875Z,37.90
2018-05-25T17:20:26.228Z,37.80
2018-05-25T17:23:29.554Z,37.70
2018-05-25T17:26:32.942Z,38.50
2018-05-25T17:29:36.240Z,39.90
2018-05-25T17:32:39.554Z,40.70
2018-05-25T17:35:43.659Z,42.30
2018-05-25T17:38:47.006Z,42.20
2018-05-25T17:41:50.344Z,42.70
2018-05-25T17:44:53.762Z,42.90
2018-05-25T17:47:57.099Z,43.80
2018-05-25T17:51:00.461Z,44.40
2018-05-25T17:54:03.799Z,45.30
2018-05-25T17:57:07.202Z,46.00
2018-05-25T18:00:10.634Z,46.50
2018-05-25T18:03:14.114Z,47.50
2018-05-25T18:06:17.374Z,48.60
2018-05-25T18:09:20.780Z,48.00
2018-05-25T18:12:24.132Z,48.90
2018-05-25T18:15:27.506Z,48.50
2018-05-25T18:18:30.919Z,48.50
2018-05-25T18:21:34.284Z,48.30
2018-05-25T18:24:37.710Z,48.70
2018-05-25T18:27:41.127Z,49.00
2018-05-25T18:30:44.503Z,50.00
2018-05-25T18:33:47.892Z,52.30
2018-05-25T18:36:51.233Z,54.30
2018-05-25T18:39:55.342Z,56.20
2018-05-25T18:42:59.549Z,57.30
2018-05-25T18:46:03.050Z,57.30
2018-05-25T18:49:06.430Z,58.30
2018-05-25T18:52:09.913Z,58.90
2018-05-25T18:55:13.342Z,59.50
2018-05-25T18:58:16.679Z,59.90
2018-05-25T19:01:20.089Z,60.70
2018-05-25T19:04:23.517Z,60.90
2018-05-25T19:07:27.011Z,61.30
2018-05-25T19:10:30.525Z,61.80
2018-05-25T19:13:33.850Z,62.50
2018-05-25T19:16:38.068Z,64.20
2018-05-25T19:19:43.058Z,65.10
2018-05-25T19:22:46.396Z,65.10
2018-05-25T19:25:50.480Z,66.60
2018-05-25T19:28:53.846Z,66.50
2018-05-25T19:31:57.293Z,67.20
2018-05-25T19:35:00.675Z,67.00
2018-05-25T19:38:04.002Z,66.80
2018-05-25T19:41:08.118Z,65.70
2018-05-25T19:44:12.206Z,65.70
2018-05-25T19:47:15.609Z,65.70
2018-05-25T19:50:18.935Z,65.50
2018-05-25T19:53:22.285Z,66.10
2018-05-25T19:56:27.257Z,66.40
2018-05-25T19:59:31.386Z,67.40
2018-05-25T20:02:34.693Z,67.40
2018-05-25T20:05:38.810Z,67.80
2018-05-25T20:08:42.134Z,67.70
2018-05-25T20:11:45.490Z,67.50
2018-05-25T20:14:48.790Z,67.70
2018-05-25T20:17:52.157Z,67.60
2018-05-25T20:20:56.239Z,66.70
2018-05-25T20:23:59.649Z,66.60
2018-05-25T20:27:02.965Z,66.80
2018-05-25T20:30:07.070Z,64.70
2018-05-25T20:33:11.197Z,63.30
2018-05-25T20:36:15.379Z,60.80
2018-05-25T20:39:18.769Z,60.70
2018-05-25T20:42:22.176Z,59.10
2018-05-25T20:45:25.522Z,57.70
2018-05-25T20:48:28.862Z,56.00
2018-05-25T20:51:32.183Z,54.80
2018-05-25T20:54:36.298Z,51.80
2018-05-25T20:57:40.494Z,52.00
2018-05-25T21:00:43.894Z,51.60
2018-05-25T21:03:47.288Z,50.50
2018-05-25T21:06:50.690Z,50.30
2018-05-25T21:09:54.023Z,50.00
2018-05-25T21:12:58.192Z,49.60
2018-05-25T21:16:01.510Z,49.60
2018-05-25T21:19:04.854Z,49.30
2018-05-25T21:22:08.164Z,48.60
2018-05-25T21:25:11.518Z,48.60
2018-05-25T21:28:15.611Z,48.00
2018-05-25T21:31:18.967Z,48.10
2018-05-25T21:34:22.389Z,47.50
2018-05-25T21:37:25.753Z,48.20
2018-05-25T21:40:29.268Z,48.60
2018-05-25T21:43:32.690Z,49.00
2018-05-25T21:46:36.012Z,49.50
2018-05-25T21:49:40.129Z,50.40
2018-05-25T21:52:44.326Z,51.80
2018-05-25T21:55:49.173Z,51.80
2018-05-25T21:58:53.322Z,52.40
2018-05-25T22:01:56.673Z,52.30
2018-05-25T22:05:00.761Z,54.20
2018-05-25T22:08:04.157Z,54.10
2018-05-25T22:11:07.596Z,55.00
2018-05-25T22:14:11.744Z,56.20
2018-05-25T22:17:15.083Z,56.20
2018-05-25T22:20:18.548Z,57.30
2018-05-25T22:23:22.113Z,58.10
2018-05-25T22:26:26.233Z,59.40
2018-05-25T22:29:30.308Z,59.70
2018-05-25T22:32:33.769Z,59.70
2018-05-25T22:35:37.150Z,61.00
2018-05-25T22:38:40.517Z,61.60
2018-05-25T22:41:43.851Z,62.20
2018-05-25T22:45:05.223Z,63.00
2018-05-25T22:48:26.386Z,64.00
2018-05-25T22:51:47.588Z,65.30
2018-05-25T22:54:59.326Z,65.70
2018-05-25T22:58:02.652Z,66.60
2018-05-25T23:01:08.451Z,69.20
2018-05-25T23:04:11.792Z,69.10
2018-05-25T23:07:15.176Z,69.50
2018-05-25T23:10:18.488Z,70.30
2018-05-25T23:13:21.778Z,71.20
2018-05-25T23:16:25.974Z,72.60
2018-05-25T23:19:29.370Z,72.50
2018-05-25T23:22:32.778Z,72.80
2018-05-25T23:25:36.164Z,72.60
2018-05-25T23:28:39.514Z,73.10
2018-05-25T23:31:43.676Z,73.80
2018-05-25T23:34:46.976Z,73.20
2018-05-25T23:37:50.312Z,74.60
2018-05-25T23:40:54.363Z,75.10
2018-05-25T23:43:57.725Z,75.10
2018-05-25T23:47:01.810Z,75.90
2018-05-25T23:50:05.153Z,75.90
2018-05-25T23:53:08.451Z,76.70
2018-05-25T23:56:11.811Z,77.20
2018-05-25T23:59:15.193Z,77.90
